createdAt,value
2024-03-21T00:04:08.096Z,2.42
2024-03-21T00:09:10.692Z,2.39
2024-03-21T00:14:16.389Z,2.40
2024-03-21T00:19:31.851Z,2.33
2024-03-21T00:24:39.606Z,2.25
2024-03-21T00:29:42.207Z,2.18
2024-03-21T00:34:45.619Z,2.13
2024-03-21T00:39:49.614Z,2.07
2024-03-21T00:44:53.575Z,1.98
2024-03-21T00:49:58.240Z,1.92
2024-03-21T00:55:01.101Z,1.87
2024-03-21T01:00:05.303Z,1.82
2024-03-21T01:05:09.822Z,1.81
2024-03-21T01:10:13.570Z,1.79
2024-03-21T01:15:19.017Z,1.73
2024-03-21T01:20:22.359Z,1.70
2024-03-21T01:25:26.750Z,1.67
2024-03-21T01:30:34.592Z,1.63
2024-03-21T01:35:37.372Z,1.58
2024-03-21T01:40:41.375Z,1.50
2024-03-21T01:45:46.128Z,1.42
2024-03-21T01:50:49.410Z,1.36
2024-03-21T01:55:52.256Z,1.34
2024-03-21T02:00:55.685Z,1.29
2024-03-21T02:05:58.443Z,1.24
2024-03-21T02:11:02.061Z,1.20
2024-03-21T02:16:04.965Z,1.13
2024-03-21T02:21:30.616Z,1.06
2024-03-21T02:26:33.045Z,1.02
2024-03-21T02:31:35.661Z,0.99
2024-03-21T02:36:38.342Z,0.93
2024-03-21T02:41:41.080Z,0.88
2024-03-21T02:46:43.638Z,0.85
2024-03-21T02:51:46.402Z,0.85
2024-03-21T02:56:49.036Z,0.82
2024-03-21T03:01:52.383Z,0.81
2024-03-21T03:06:55.262Z,0.78
2024-03-21T03:11:58.800Z,0.76
2024-03-21T03:17:02.033Z,0.76
2024-03-21T03:22:05.001Z,0.74
2024-03-21T03:27:07.411Z,0.67
2024-03-21T03:32:10.262Z,0.56
2024-03-21T03:37:13.422Z,0.52
2024-03-21T03:42:16.170Z,0.50
2024-03-21T03:47:19.462Z,0.48
2024-03-21T03:52:22.736Z,0.50
2024-03-21T03:57:26.557Z,0.52
2024-03-21T04:02:30.878Z,0.52
2024-03-21T04:07:34.581Z,0.52
2024-03-21T04:12:37.054Z,0.50
2024-03-21T04:17:39.390Z,0.50
2024-03-21T04:22:41.885Z,0.49
2024-03-21T04:27:44.887Z,0.49
2024-03-21T04:32:47.891Z,0.46
2024-03-21T04:37:52.799Z,0.43
2024-03-21T04:42:55.298Z,0.44
2024-03-21T04:47:57.965Z,0.46
2024-03-21T04:53:00.382Z,0.52
2024-03-21T04:58:02.731Z,0.60
2024-03-21T05:03:05.918Z,0.69
2024-03-21T05:08:08.257Z,0.78
2024-03-21T05:13:10.550Z,0.90
2024-03-21T05:18:13.085Z,1.17
2024-03-21T05:23:16.313Z,1.73
2024-03-21T05:28:18.660Z,2.33
2024-03-21T05:33:20.968Z,2.77
2024-03-21T05:38:24.336Z,3.26
2024-03-21T05:43:27.233Z,3.80
2024-03-21T05:48:35.306Z,4.57
2024-03-21T05:53:38.020Z,5.35
2024-03-21T05:58:40.389Z,6.03
2024-03-21T06:03:44.123Z,6.66
2024-03-21T06:08:46.599Z,7.14
2024-03-21T06:13:51.257Z,7.84
2024-03-21T06:18:54.114Z,8.57
2024-03-21T06:23:56.562Z,9.22
2024-03-21T06:28:59.079Z,9.53
2024-03-21T06:34:02.735Z,9.84
2024-03-21T06:39:05.963Z,9.53
2024-03-21T06:44:08.403Z,9.11
2024-03-21T06:49:10.733Z,9.24
2024-03-21T06:54:14.342Z,9.38
2024-03-21T06:59:16.795Z,9.58
2024-03-21T07:04:19.171Z,9.97
2024-03-21T07:09:22.189Z,10.91
2024-03-21T07:14:24.533Z,11.02
2024-03-21T07:19:34.356Z,11.02
2024-03-21T07:24:36.684Z,10.95
2024-03-21T07:29:39.143Z,10.92
2024-03-21T07:34:53.999Z,11.49
2024-03-21T07:39:57.155Z,12.00
2024-03-21T07:45:03.272Z,12.44
2024-03-21T07:50:06.319Z,12.23
2024-03-21T07:55:09.885Z,12.11
2024-03-21T08:00:13.149Z,12.39
2024-03-21T08:05:15.521Z,12.86
2024-03-21T08:10:17.909Z,13.18
2024-03-21T08:15:22.624Z,13.23
2024-03-21T08:20:25.494Z,13.65
2024-03-21T08:25:29.703Z,13.92
2024-03-21T08:30:35.053Z,13.94
2024-03-21T08:35:38.211Z,14.01
2024-03-21T08:40:41.159Z,14.91
2024-03-21T08:45:48.601Z,14.95
2024-03-21T08:50:51.552Z,14.40
2024-03-21T08:55:53.890Z,14.54
2024-03-21T09:00:57.206Z,14.21
2024-03-21T09:06:00.274Z,14.70
2024-03-21T09:11:04.134Z,14.13
2024-03-21T09:16:08.786Z,14.87
2024-03-21T09:21:14.413Z,15.25
2024-03-21T09:26:18.698Z,14.91
2024-03-21T09:31:24.525Z,15.39
2024-03-21T09:36:28.210Z,14.77
2024-03-21T09:41:34.187Z,14.74
2024-03-21T09:46:40.663Z,15.01
2024-03-21T09:51:43.341Z,14.65
2024-03-21T09:56:47.331Z,14.34
2024-03-21T10:01:49.711Z,14.17
2024-03-21T10:06:52.424Z,14.08
2024-03-21T10:11:56.243Z,14.19
2024-03-21T10:16:58.787Z,14.71
2024-03-21T10:22:01.413Z,14.85
2024-03-21T10:27:09.091Z,15.46
2024-03-21T10:32:23.789Z,16.57
2024-03-21T10:37:27.521Z,16.25
2024-03-21T10:42:32.963Z,16.31
2024-03-21T10:47:35.882Z,17.01
2024-03-21T10:52:51.586Z,17.43
2024-03-21T10:57:56.338Z,17.37
2024-03-21T11:03:00.913Z,16.86
2024-03-21T11:08:03.580Z,16.55
2024-03-21T11:13:08.455Z,17.05
2024-03-21T11:18:11.472Z,17.58
2024-03-21T11:23:17.015Z,17.34
2024-03-21T11:28:21.525Z,17.70
2024-03-21T11:33:23.924Z,17.90
2024-03-21T11:38:28.142Z,18.12
2024-03-21T11:43:30.511Z,18.79
2024-03-21T11:48:32.947Z,18.45
2024-03-21T11:53:35.348Z,18.44
2024-03-21T11:58:40.631Z,18.38
2024-03-21T12:03:42.981Z,17.76
2024-03-21T12:08:46.499Z,17.31
2024-03-21T12:13:49.373Z,17.38
2024-03-21T12:18:55.208Z,17.70
2024-03-21T12:23:59.605Z,17.14
2024-03-21T12:29:02.109Z,16.43
2024-03-21T12:34:05.268Z,16.00
2024-03-21T12:39:09.907Z,16.06
2024-03-21T12:44:15.268Z,15.94
2024-03-21T12:49:17.859Z,16.21
2024-03-21T12:54:26.454Z,16.32
2024-03-21T12:59:29.541Z,16.35
2024-03-21T13:04:34.570Z,16.47
2024-03-21T13:09:39.252Z,16.62
2024-03-21T13:14:41.901Z,16.40
2024-03-21T13:19:50.307Z,15.77
2024-03-21T13:24:57.768Z,15.29
2024-03-21T13:30:01.165Z,15.88
2024-03-21T13:35:04.743Z,16.42
2024-03-21T13:40:08.111Z,16.66
2024-03-21T13:45:14.426Z,16.33
2024-03-21T13:50:18.022Z,16.02
2024-03-21T13:55:20.381Z,16.04
2024-03-21T14:00:31.454Z,15.86
2024-03-21T14:05:34.577Z,15.60
2024-03-21T14:10:36.894Z,15.23
2024-03-21T14:15:39.868Z,14.66
2024-03-21T14:20:46.008Z,14.24
2024-03-21T14:25:48.376Z,14.00
2024-03-21T14:30:50.626Z,14.04
2024-03-21T14:35:54.050Z,14.13
2024-03-21T14:40:56.426Z,14.06
2024-03-21T14:45:59.571Z,13.67
2024-03-21T14:51:02.639Z,13.25
2024-03-21T14:56:08.568Z,13.02
2024-03-21T15:01:11.960Z,13.08
2024-03-21T15:06:15.336Z,12.86
2024-03-21T15:11:18.006Z,12.78
2024-03-21T15:16:20.502Z,12.70
2024-03-21T15:21:39.699Z,12.45
2024-03-21T15:26:45.690Z,12.29
2024-03-21T15:31:47.921Z,12.16
2024-03-21T15:36:50.502Z,11.91
2024-03-21T15:41:52.950Z,11.85
2024-03-21T15:46:55.572Z,11.74
2024-03-21T15:51:58.842Z,11.67
2024-03-21T15:57:01.415Z,11.76
2024-03-21T16:02:03.978Z,11.85
2024-03-21T16:07:06.380Z,11.86
2024-03-21T16:12:09.125Z,11.83
2024-03-21T16:17:11.683Z,11.81
2024-03-21T16:22:16.225Z,11.66
2024-03-21T16:27:20.111Z,11.57
2024-03-21T16:32:25.105Z,11.51
2024-03-21T16:37:31.364Z,11.39
2024-03-21T16:42:34.580Z,11.32
2024-03-21T16:47:37.222Z,11.21
2024-03-21T16:52:42.358Z,11.11
2024-03-21T16:57:45.432Z,11.04
2024-03-21T17:02:48.295Z,10.98
2024-03-21T17:07:55.629Z,10.91
2024-03-21T17:13:00.383Z,10.78
2024-03-21T17:18:04.086Z,10.69
2024-03-21T17:23:06.632Z,10.63
2024-03-21T17:28:12.461Z,10.58
2024-03-21T17:33:14.982Z,10.49
2024-03-21T17:38:24.266Z,10.42
2024-03-21T17:43:35.545Z,10.36
2024-03-21T17:48:38.760Z,10.30
2024-03-21T17:53:41.547Z,10.25
2024-03-21T17:58:43.983Z,10.22
2024-03-21T18:03:46.549Z,10.15
2024-03-21T18:08:49.064Z,10.05
2024-03-21T18:13:51.603Z,9.97
2024-03-21T18:18:54.264Z,9.89
2024-03-21T18:23:56.625Z,9.83
2024-03-21T18:28:59.310Z,9.78
2024-03-21T18:34:03.621Z,9.70
2024-03-21T18:39:07.058Z,9.62
2024-03-21T18:44:10.601Z,9.53
2024-03-21T18:49:13.296Z,9.45
2024-03-21T18:54:15.725Z,9.31
2024-03-21T18:59:18.164Z,9.21
2024-03-21T19:04:20.690Z,9.18
2024-03-21T19:09:23.653Z,9.13
2024-03-21T19:14:25.990Z,9.01
2024-03-21T19:19:29.079Z,8.89
2024-03-21T19:24:32.794Z,8.82
2024-03-21T19:29:35.075Z,8.77
2024-03-21T19:34:40.575Z,8.76
2024-03-21T19:39:43.587Z,8.73
2024-03-21T19:44:45.985Z,8.70
2024-03-21T19:49:48.468Z,8.62
2024-03-21T19:54:51.625Z,8.54
2024-03-21T19:59:53.995Z,8.47
2024-03-21T20:04:57.035Z,8.38
2024-03-21T20:09:59.294Z,8.33
2024-03-21T20:15:03.422Z,8.23
2024-03-21T20:20:09.029Z,8.17
2024-03-21T20:25:11.352Z,8.14
2024-03-21T20:30:13.902Z,8.07
2024-03-21T20:35:17.487Z,8.02
2024-03-21T20:40:24.044Z,8.00
2024-03-21T20:45:26.466Z,7.99
2024-03-21T20:50:28.792Z,7.98
2024-03-21T20:55:31.342Z,7.96
2024-03-21T21:00:33.827Z,7.95
2024-03-21T21:05:39.080Z,7.95
2024-03-21T21:10:42.260Z,7.97
2024-03-21T21:15:50.432Z,7.94
2024-03-21T21:20:55.338Z,7.93
2024-03-21T21:26:09.627Z,7.89
2024-03-21T21:31:13.544Z,7.85
2024-03-21T21:36:23.419Z,7.78
2024-03-21T21:41:26.356Z,7.70
2024-03-21T21:46:28.728Z,7.67
2024-03-21T21:51:31.020Z,7.64
2024-03-21T21:56:37.185Z,7.60
2024-03-21T22:01:39.506Z,7.53
2024-03-21T22:06:42.831Z,7.45
2024-03-21T22:11:45.219Z,7.38
2024-03-21T22:16:47.731Z,7.31
2024-03-21T22:21:50.394Z,7.27
2024-03-21T22:26:53.441Z,7.26
2024-03-21T22:31:55.827Z,7.23
2024-03-21T22:36:58.618Z,7.20
2024-03-21T22:42:01.412Z,7.14
2024-03-21T22:47:04.102Z,7.07
2024-03-21T22:52:08.100Z,6.99
2024-03-21T22:57:12.226Z,6.90
2024-03-21T23:02:14.608Z,6.86
2024-03-21T23:07:17.084Z,6.83
2024-03-21T23:12:19.732Z,6.78
2024-03-21T23:17:22.737Z,6.70
2024-03-21T23:22:25.331Z,6.63
2024-03-21T23:27:28.017Z,6.58
2024-03-21T23:32:33.205Z,6.55
2024-03-21T23:37:37.681Z,6.51
2024-03-21T23:42:40.204Z,6.48
2024-03-21T23:47:43.627Z,6.44
2024-03-21T23:52:46.105Z,6.36
2024-03-21T23:57:49.112Z,6.33
